createdAt,value
2023-04-13T00:00:38.046Z,11.05
2023-04-13T00:01:40.392Z,11.06
2023-04-13T00:02:43.212Z,11.05
2023-04-13T00:03:45.766Z,11.06
2023-04-13T00:04:47.984Z,11.07
2023-04-13T00:05:50.555Z,11.07
2023-04-13T00:06:52.819Z,11.07
2023-04-13T00:07:55.071Z,11.10
2023-04-13T00:08:57.754Z,11.09
2023-04-13T00:10:00.825Z,11.10
2023-04-13T00:11:04.897Z,11.07
2023-04-13T00:12:07.120Z,11.05
2023-04-13T00:13:10.408Z,11.07
2023-04-13T00:14:12.635Z,11.05
2023-04-13T00:15:16.888Z,11.05
2023-04-13T00:16:19.209Z,11.05
2023-04-13T00:17:21.525Z,11.04
2023-04-13T00:18:23.498Z,11.03
2023-04-13T00:19:26.296Z,11.04
2023-04-13T00:20:29.635Z,11.04
2023-04-13T00:21:31.735Z,11.02
2023-04-13T00:22:33.897Z,11.04
2023-04-13T00:23:36.088Z,11.03
2023-04-13T00:24:38.349Z,11.04
2023-04-13T00:25:41.625Z,11.02
2023-04-13T00:26:44.052Z,11.03
2023-04-13T00:27:46.124Z,11.01
2023-04-13T00:28:48.368Z,11.00
2023-04-13T00:29:50.720Z,11.01
2023-04-13T00:30:53.531Z,11.00
2023-04-13T00:31:55.702Z,11.01
2023-04-13T00:32:59.861Z,11.00
2023-04-13T00:34:03.716Z,11.03
2023-04-13T00:35:06.843Z,11.00
2023-04-13T00:36:09.577Z,11.02
2023-04-13T00:38:21.548Z,11.10
2023-04-13T00:39:23.856Z,10.91
2023-04-13T00:40:26.219Z,10.93
2023-04-13T00:41:28.692Z,10.96
2023-04-13T00:42:31.758Z,10.98
2023-04-13T00:43:33.996Z,10.99
2023-04-13T00:44:36.141Z,10.99
2023-04-13T00:45:39.312Z,11.00
2023-04-13T00:46:41.987Z,11.02
2023-04-13T00:47:45.939Z,11.01
2023-04-13T00:50:01.147Z,11.12
2023-04-13T00:51:03.855Z,10.95
2023-04-13T00:52:06.233Z,10.96
2023-04-13T00:53:10.964Z,10.98
2023-04-13T00:54:14.371Z,10.97
2023-04-13T00:55:16.960Z,10.96
2023-04-13T00:56:20.068Z,10.97
2023-04-13T00:57:24.227Z,10.94
2023-04-13T00:58:26.430Z,10.96
2023-04-13T00:59:28.993Z,10.97
2023-04-13T01:00:31.252Z,10.96
2023-04-13T01:01:33.670Z,10.92
2023-04-13T01:02:36.956Z,10.91
2023-04-13T01:03:39.461Z,10.92
2023-04-13T01:04:42.861Z,10.93
2023-04-13T01:05:55.357Z,10.91
2023-04-13T01:07:18.141Z,10.92
2023-04-13T01:08:27.968Z,10.92
2023-04-13T01:09:33.564Z,10.93
2023-04-13T01:10:42.522Z,10.91
2023-04-13T01:12:11.480Z,10.89
2023-04-13T01:14:41.434Z,11.05
2023-04-13T01:15:55.091Z,10.83
2023-04-13T01:17:01.256Z,10.84
2023-04-13T01:18:06.662Z,10.85
2023-04-13T01:19:12.433Z,10.83
2023-04-13T01:20:16.321Z,10.84
2023-04-13T01:21:23.367Z,10.86
2023-04-13T01:22:29.593Z,10.87
2023-04-13T01:23:47.991Z,10.86
2023-04-13T01:24:53.784Z,10.85
2023-04-13T01:25:59.356Z,10.85
2023-04-13T01:27:20.557Z,10.83
2023-04-13T01:28:24.797Z,10.81
2023-04-13T01:29:28.325Z,10.81
2023-04-13T01:30:32.778Z,10.80
2023-04-13T01:31:35.395Z,10.79
2023-04-13T01:32:39.237Z,10.76
2023-04-13T01:33:42.267Z,10.77
2023-04-13T01:34:45.758Z,10.79
2023-04-13T01:35:48.979Z,10.81
2023-04-13T01:36:53.380Z,10.78
2023-04-13T01:37:56.196Z,10.80
2023-04-13T01:39:01.226Z,10.81
2023-04-13T01:40:06.743Z,10.81
2023-04-13T01:41:10.870Z,10.81
2023-04-13T01:42:14.861Z,10.81
2023-04-13T01:44:31.666Z,10.95
2023-04-13T01:45:52.875Z,10.76
2023-04-13T01:46:59.331Z,10.78
2023-04-13T01:48:16.051Z,10.80
2023-04-13T01:49:32.768Z,10.80
2023-04-13T01:52:10.702Z,10.96
2023-04-13T01:53:16.656Z,10.76
2023-04-13T01:54:21.726Z,10.76
2023-04-13T01:55:24.537Z,10.79
2023-04-13T01:56:29.502Z,10.81
2023-04-13T01:57:34.396Z,10.79
2023-04-13T01:58:40.129Z,10.81
2023-04-13T01:59:44.537Z,10.80
2023-04-13T02:00:49.063Z,10.80
2023-04-13T02:01:51.342Z,10.81
2023-04-13T02:02:55.604Z,10.82
2023-04-13T02:03:59.078Z,10.85
2023-04-13T02:05:03.911Z,10.86
2023-04-13T02:06:09.648Z,10.85
2023-04-13T02:07:13.640Z,10.83
2023-04-13T02:08:17.881Z,10.82
2023-04-13T02:09:21.976Z,10.82
2023-04-13T02:10:26.072Z,10.81
2023-04-13T02:11:28.348Z,10.78
2023-04-13T02:12:30.602Z,10.81
2023-04-13T02:13:33.941Z,10.78
2023-04-13T02:14:37.989Z,10.82
2023-04-13T02:15:40.782Z,10.78
2023-04-13T02:16:43.106Z,10.76
2023-04-13T02:17:45.740Z,10.79
2023-04-13T02:18:47.979Z,10.80
2023-04-13T02:19:50.350Z,10.81
2023-04-13T02:21:01.540Z,10.79
2023-04-13T02:22:03.829Z,10.80
2023-04-13T02:23:06.192Z,10.79
2023-04-13T02:24:08.475Z,10.81
2023-04-13T02:25:12.040Z,10.80
2023-04-13T02:26:14.809Z,10.81
2023-04-13T02:27:17.470Z,10.79
2023-04-13T02:28:19.608Z,10.79
2023-04-13T02:29:21.853Z,10.80
2023-04-13T02:30:24.192Z,10.79
2023-04-13T02:31:26.493Z,10.81
2023-04-13T02:32:30.236Z,10.78
2023-04-13T02:33:33.856Z,10.82
2023-04-13T02:34:36.689Z,10.82
2023-04-13T02:35:40.009Z,10.81
2023-04-13T02:36:42.855Z,10.83
2023-04-13T02:37:45.121Z,10.84
2023-04-13T02:38:48.792Z,10.82
2023-04-13T02:39:55.760Z,10.83
2023-04-13T02:40:59.525Z,10.81
2023-04-13T02:42:01.873Z,10.80
2023-04-13T02:43:04.555Z,10.80
2023-04-13T02:44:07.969Z,10.80
2023-04-13T02:45:12.615Z,10.80
2023-04-13T02:46:16.479Z,10.81
2023-04-13T02:47:19.628Z,10.80
2023-04-13T02:48:22.352Z,10.80
2023-04-13T02:49:25.302Z,10.80
2023-04-13T02:50:46.445Z,10.81
2023-04-13T02:51:50.835Z,10.83
2023-04-13T02:52:54.607Z,10.82
2023-04-13T02:53:58.128Z,10.83
2023-04-13T02:55:01.089Z,10.83
2023-04-13T02:56:06.435Z,10.81
2023-04-13T02:57:10.089Z,10.82
2023-04-13T02:58:13.782Z,10.82
2023-04-13T02:59:18.190Z,10.83
2023-04-13T03:00:21.324Z,10.82
2023-04-13T03:01:25.502Z,10.83
2023-04-13T03:02:29.531Z,10.83
2023-04-13T03:03:32.028Z,10.82
2023-04-13T03:04:34.539Z,10.82
2023-04-13T03:05:36.993Z,10.83
2023-04-13T03:06:39.884Z,10.83
2023-04-13T03:07:42.042Z,10.85
2023-04-13T03:08:44.821Z,10.82
2023-04-13T03:09:49.415Z,10.82
2023-04-13T03:10:51.927Z,10.79
2023-04-13T03:11:54.965Z,10.80
2023-04-13T03:12:59.423Z,10.78
2023-04-13T03:14:01.922Z,10.82
2023-04-13T03:15:06.988Z,10.84
2023-04-13T03:16:11.236Z,10.82
2023-04-13T03:17:13.682Z,10.81
2023-04-13T03:18:16.996Z,10.81
2023-04-13T03:19:19.231Z,10.81
2023-04-13T03:20:22.562Z,10.81
2023-04-13T03:21:26.542Z,10.81
2023-04-13T03:22:34.248Z,10.82
2023-04-13T03:23:37.402Z,10.80
2023-04-13T03:24:41.289Z,10.81
2023-04-13T03:25:43.694Z,10.81
2023-04-13T03:26:47.518Z,10.80
2023-04-13T03:27:51.671Z,10.79
2023-04-13T03:28:55.659Z,10.80
2023-04-13T03:29:58.737Z,10.80
2023-04-13T03:31:01.674Z,10.81
2023-04-13T03:32:07.294Z,10.81
2023-04-13T03:33:11.018Z,10.80
2023-04-13T03:34:14.228Z,10.82
2023-04-13T03:35:17.057Z,10.78
2023-04-13T03:36:20.749Z,10.77
2023-04-13T03:37:23.259Z,10.78
2023-04-13T03:38:26.845Z,10.79
2023-04-13T03:39:29.121Z,10.78
2023-04-13T03:40:31.363Z,10.78
2023-04-13T03:41:33.486Z,10.80
2023-04-13T03:42:37.729Z,10.79
2023-04-13T03:43:39.760Z,10.80
2023-04-13T03:44:43.777Z,10.79
2023-04-13T03:45:46.037Z,10.79
2023-04-13T03:46:50.084Z,10.81
2023-04-13T03:47:54.251Z,10.80
2023-04-13T03:48:57.426Z,10.81
2023-04-13T03:50:01.884Z,10.80
2023-04-13T03:51:06.358Z,10.77
2023-04-13T03:52:10.486Z,10.81
2023-04-13T03:53:14.555Z,10.82
2023-04-13T03:54:18.452Z,10.79
2023-04-13T03:55:20.769Z,10.80
2023-04-13T03:56:25.126Z,10.80
2023-04-13T03:57:27.382Z,10.80
2023-04-13T03:58:30.806Z,10.79
2023-04-13T03:59:33.597Z,10.81
2023-04-13T04:00:36.618Z,10.82
2023-04-13T04:01:40.656Z,10.81
2023-04-13T04:02:43.748Z,10.80
2023-04-13T04:03:49.397Z,10.81
2023-04-13T04:04:53.029Z,10.80
2023-04-13T04:05:55.204Z,10.79
2023-04-13T04:06:58.181Z,10.82
2023-04-13T04:08:01.589Z,10.84
2023-04-13T04:09:03.964Z,10.80
2023-04-13T04:10:11.384Z,10.81
2023-04-13T04:11:13.866Z,10.80
2023-04-13T04:12:16.113Z,10.82
2023-04-13T04:13:19.047Z,10.80
2023-04-13T04:14:23.199Z,10.81
2023-04-13T04:15:27.319Z,10.83
2023-04-13T04:16:31.551Z,10.83
2023-04-13T04:17:37.312Z,10.83
2023-04-13T04:18:41.268Z,10.82
2023-04-13T04:19:44.574Z,10.80
2023-04-13T04:20:47.178Z,10.82
2023-04-13T04:21:49.439Z,10.82
2023-04-13T04:22:52.946Z,10.84
2023-04-13T04:23:55.607Z,10.85
2023-04-13T04:24:57.855Z,10.85
2023-04-13T04:26:01.248Z,10.84
2023-04-13T04:27:05.285Z,10.86
2023-04-13T04:28:07.650Z,10.86
2023-04-13T04:29:10.220Z,10.89
2023-04-13T04:30:13.385Z,10.87
2023-04-13T04:31:15.650Z,10.87
2023-04-13T04:32:19.433Z,10.88
2023-04-13T04:33:22.316Z,10.88
2023-04-13T04:34:24.383Z,10.90
2023-04-13T04:35:27.215Z,10.88
2023-04-13T04:36:29.769Z,10.93
2023-04-13T04:37:33.753Z,10.90
2023-04-13T04:38:37.652Z,10.90
2023-04-13T04:39:41.157Z,10.90
2023-04-13T04:40:45.461Z,10.90
2023-04-13T04:43:00.742Z,11.05
2023-04-13T04:44:07.950Z,10.87
2023-04-13T04:45:12.095Z,10.91
2023-04-13T04:46:16.416Z,10.91
2023-04-13T04:47:20.841Z,10.94
2023-04-13T04:48:31.024Z,10.94
2023-04-13T04:49:33.947Z,10.97
2023-04-13T04:50:37.555Z,10.95
2023-04-13T04:51:41.633Z,10.95
2023-04-13T04:52:45.007Z,10.97
2023-04-13T04:53:49.154Z,11.00
2023-04-13T04:54:52.824Z,10.99
2023-04-13T04:55:55.233Z,11.02
2023-04-13T04:56:59.344Z,10.99
2023-04-13T04:58:01.936Z,11.01
2023-04-13T04:59:04.906Z,11.01
2023-04-13T05:00:10.485Z,11.02
2023-04-13T05:01:14.937Z,11.04
2023-04-13T05:02:19.189Z,11.05
2023-04-13T05:03:21.800Z,11.03
2023-04-13T05:04:26.120Z,11.05
2023-04-13T05:05:28.938Z,11.03
2023-04-13T05:06:33.438Z,11.01
2023-04-13T05:07:36.193Z,11.00
2023-04-13T05:08:38.663Z,11.01
2023-04-13T05:09:41.334Z,11.02
2023-04-13T05:10:44.555Z,11.02
2023-04-13T05:11:46.813Z,11.02
2023-04-13T05:13:58.292Z,11.17
2023-04-13T05:15:02.382Z,11.04
2023-04-13T05:16:05.975Z,11.04
2023-04-13T05:17:08.454Z,11.10
2023-04-13T05:18:12.947Z,11.10
2023-04-13T05:19:15.021Z,11.13
2023-04-13T05:20:24.995Z,11.14
2023-04-13T05:21:31.913Z,11.17
2023-04-13T05:23:44.066Z,11.32
2023-04-13T05:24:46.521Z,11.14
2023-04-13T05:25:51.112Z,11.18
2023-04-13T05:26:55.916Z,11.22
2023-04-13T05:27:58.330Z,11.24
2023-04-13T05:29:02.076Z,11.26
2023-04-13T05:30:07.598Z,11.24
2023-04-13T05:31:12.178Z,11.24
2023-04-13T05:32:16.419Z,11.22
2023-04-13T05:33:20.407Z,11.24
2023-04-13T05:34:24.034Z,11.25
2023-04-13T05:35:30.725Z,11.22
2023-04-13T05:36:33.570Z,11.23
2023-04-13T05:37:37.733Z,11.24
2023-04-13T05:38:39.876Z,11.25
2023-04-13T05:39:42.053Z,11.25
2023-04-13T05:40:44.717Z,11.25
2023-04-13T05:41:47.546Z,11.27
2023-04-13T05:42:50.381Z,11.27
2023-04-13T05:43:54.486Z,11.30
2023-04-13T05:44:56.845Z,11.33
2023-04-13T05:46:01.200Z,11.33
2023-04-13T05:47:03.963Z,11.31
2023-04-13T05:48:07.826Z,11.34
2023-04-13T05:49:10.166Z,11.35
2023-04-13T05:50:12.908Z,11.37
2023-04-13T05:51:17.408Z,11.37
2023-04-13T05:52:20.367Z,11.36
2023-04-13T05:53:24.056Z,11.37
2023-04-13T05:54:28.380Z,11.37
2023-04-13T05:55:31.817Z,11.41
2023-04-13T05:56:38.994Z,11.43
2023-04-13T05:57:41.163Z,11.43
2023-04-13T05:58:45.064Z,11.44
2023-04-13T05:59:52.670Z,11.45
2023-04-13T06:00:56.986Z,11.47
2023-04-13T06:02:01.482Z,11.50
2023-04-13T06:03:04.462Z,11.52
2023-04-13T06:04:08.448Z,11.50
2023-04-13T06:05:11.153Z,11.50
2023-04-13T06:06:14.026Z,11.52
2023-04-13T06:07:18.063Z,11.49
2023-04-13T06:09:28.513Z,11.52
2023-04-13T06:10:30.778Z,11.51
2023-04-13T06:11:33.857Z,11.53
2023-04-13T06:12:37.213Z,11.51
2023-04-13T06:13:39.633Z,11.54
2023-04-13T06:14:46.006Z,11.52
2023-04-13T06:15:48.228Z,11.52
2023-04-13T06:16:57.507Z,11.52
2023-04-13T06:18:00.861Z,11.52
2023-04-13T06:19:06.066Z,11.53
2023-04-13T06:20:09.361Z,11.54
2023-04-13T06:21:12.018Z,11.54
2023-04-13T06:22:14.740Z,11.57
2023-04-13T06:23:17.900Z,11.58
2023-04-13T06:24:20.638Z,11.57
2023-04-13T06:25:23.472Z,11.59
2023-04-13T06:26:25.736Z,11.58
2023-04-13T06:27:30.307Z,11.59
2023-04-13T06:28:32.597Z,11.63
2023-04-13T06:29:35.446Z,11.63
2023-04-13T06:30:42.496Z,11.62
2023-04-13T06:31:46.479Z,11.68
2023-04-13T06:32:51.073Z,11.67
2023-04-13T06:33:54.770Z,11.68
2023-04-13T06:34:59.963Z,11.69
2023-04-13T06:36:04.642Z,11.69
2023-04-13T06:37:09.942Z,11.72
2023-04-13T06:38:16.985Z,11.71
2023-04-13T06:39:23.464Z,11.74
2023-04-13T06:40:28.484Z,11.75
2023-04-13T06:41:36.104Z,11.77
2023-04-13T06:42:48.908Z,11.78
2023-04-13T06:44:09.400Z,11.74
2023-04-13T06:45:14.585Z,11.77
2023-04-13T06:46:19.943Z,11.77
2023-04-13T06:47:24.816Z,11.77
2023-04-13T06:48:27.590Z,11.77
2023-04-13T06:49:35.115Z,11.79
2023-04-13T06:50:37.956Z,11.80
2023-04-13T06:51:40.088Z,11.83
2023-04-13T06:52:45.423Z,11.82
2023-04-13T06:53:47.504Z,11.86
2023-04-13T06:54:51.081Z,11.85
2023-04-13T06:55:58.423Z,11.88
2023-04-13T06:57:01.651Z,11.86
2023-04-13T06:58:03.854Z,11.91
2023-04-13T06:59:06.303Z,11.94
2023-04-13T07:00:25.920Z,11.93
2023-04-13T07:01:15.196Z,11.97
2023-04-13T07:02:17.618Z,11.98
2023-04-13T07:03:21.023Z,11.99
2023-04-13T07:04:25.148Z,12.02
2023-04-13T07:05:28.936Z,12.04
2023-04-13T07:06:33.507Z,12.03
2023-04-13T07:07:36.720Z,12.08
2023-04-13T07:08:39.789Z,12.09
2023-04-13T07:09:42.008Z,12.11
2023-04-13T07:10:46.425Z,12.09
2023-04-13T07:11:50.459Z,12.11
2023-04-13T07:12:54.025Z,12.11
2023-04-13T07:13:57.210Z,12.15
2023-04-13T07:15:00.183Z,12.16
2023-04-13T07:16:05.656Z,12.16
2023-04-13T07:17:11.912Z,12.15
2023-04-13T07:18:14.603Z,12.18
2023-04-13T07:19:16.820Z,12.21
2023-04-13T07:20:19.595Z,12.23
2023-04-13T07:21:22.418Z,12.25
2023-04-13T07:22:31.589Z,12.29
2023-04-13T07:23:34.563Z,12.31
2023-04-13T07:24:37.224Z,12.35
2023-04-13T07:25:41.215Z,12.35
2023-04-13T07:26:46.361Z,12.37
2023-04-13T07:27:48.723Z,12.37
2023-04-13T07:28:51.346Z,12.38
2023-04-13T07:29:55.013Z,12.39
2023-04-13T07:30:59.267Z,12.39
2023-04-13T07:32:03.749Z,12.40
2023-04-13T07:33:06.640Z,12.41
2023-04-13T07:34:09.213Z,12.43
2023-04-13T07:35:13.614Z,12.46
2023-04-13T07:36:17.087Z,12.47
2023-04-13T07:37:21.014Z,12.48
2023-04-13T07:38:23.223Z,12.50
2023-04-13T07:40:35.150Z,12.60
2023-04-13T07:41:39.684Z,12.47
2023-04-13T07:42:43.281Z,12.48
2023-04-13T07:43:45.679Z,12.50
2023-04-13T07:44:47.831Z,12.50
2023-04-13T07:45:50.102Z,12.53
2023-04-13T07:46:54.850Z,12.54
2023-04-13T07:47:57.583Z,12.56
2023-04-13T07:49:00.056Z,12.56
2023-04-13T07:50:04.938Z,12.57
2023-04-13T07:51:19.090Z,12.55
2023-04-13T07:52:21.308Z,12.55
2023-04-13T07:53:24.109Z,12.59
2023-04-13T07:54:27.433Z,12.60
2023-04-13T07:55:29.585Z,12.59
2023-04-13T07:56:31.953Z,12.60
2023-04-13T07:57:35.831Z,12.61
2023-04-13T07:58:38.752Z,12.58
2023-04-13T07:59:41.762Z,12.59
2023-04-13T08:00:44.011Z,12.61
2023-04-13T08:01:46.892Z,12.62
2023-04-13T08:02:49.262Z,12.61
2023-04-13T08:03:54.474Z,12.61
2023-04-13T08:04:59.188Z,12.56
2023-04-13T08:07:16.836Z,12.65
2023-04-13T08:08:20.559Z,12.47
2023-04-13T08:09:23.159Z,12.47
2023-04-13T08:10:26.494Z,12.48
2023-04-13T08:11:29.420Z,12.46
2023-04-13T08:12:34.570Z,12.47
2023-04-13T08:13:37.100Z,12.46
2023-04-13T08:14:39.827Z,12.43
2023-04-13T08:15:44.284Z,12.44
2023-04-13T08:16:47.709Z,12.43
2023-04-13T08:17:50.402Z,12.44
2023-04-13T08:18:53.360Z,12.42
2023-04-13T08:19:55.634Z,12.46
2023-04-13T08:20:58.332Z,12.44
2023-04-13T08:22:01.311Z,12.42
2023-04-13T08:23:03.675Z,12.42
2023-04-13T08:24:05.955Z,12.40
2023-04-13T08:25:08.158Z,12.38
2023-04-13T08:26:21.407Z,12.39
2023-04-13T08:27:23.532Z,12.40
2023-04-13T08:28:25.722Z,12.40
2023-04-13T08:29:27.810Z,12.41
2023-04-13T08:31:40.828Z,12.55
2023-04-13T08:32:44.272Z,12.42
2023-04-13T08:33:47.496Z,12.39
2023-04-13T08:34:49.816Z,12.42
2023-04-13T08:35:52.271Z,12.44
2023-04-13T08:36:55.236Z,12.43
2023-04-13T08:38:01.238Z,12.44
2023-04-13T08:39:03.610Z,12.43
2023-04-13T08:40:07.412Z,12.47
2023-04-13T08:41:09.780Z,12.46
2023-04-13T08:42:12.890Z,12.47
2023-04-13T08:43:15.252Z,12.46
2023-04-13T08:44:17.422Z,12.44
2023-04-13T08:45:21.248Z,12.43
2023-04-13T08:46:26.411Z,12.44
2023-04-13T08:47:30.441Z,12.40
2023-04-13T08:48:46.212Z,12.41
2023-04-13T08:49:40.315Z,12.37
2023-04-13T08:52:03.581Z,12.46
2023-04-13T08:53:06.585Z,12.31
2023-04-13T08:54:08.637Z,12.28
2023-04-13T08:55:11.850Z,12.29
2023-04-13T08:56:15.851Z,12.32
2023-04-13T08:57:19.986Z,12.33
2023-04-13T08:58:24.903Z,12.31
2023-04-13T08:59:29.542Z,12.32
2023-04-13T09:00:32.330Z,12.31
2023-04-13T09:01:36.619Z,12.33
2023-04-13T09:02:46.655Z,12.33
2023-04-13T09:05:05.507Z,12.47
2023-04-13T09:06:12.344Z,12.35
2023-04-13T09:07:18.069Z,12.39
2023-04-13T09:08:22.303Z,12.43
2023-04-13T09:09:26.763Z,12.46
2023-04-13T09:10:30.311Z,12.49
2023-04-13T09:11:32.707Z,12.51
2023-04-13T09:12:36.820Z,12.55
2023-04-13T09:13:39.035Z,12.58
2023-04-13T09:14:41.142Z,12.61
2023-04-13T09:15:43.779Z,12.63
2023-04-13T09:16:47.976Z,12.64
2023-04-13T09:17:53.006Z,12.68
2023-04-13T09:18:58.522Z,12.71
2023-04-13T09:21:42.781Z,12.90
2023-04-13T09:22:45.190Z,12.78
2023-04-13T09:23:56.076Z,12.80
2023-04-13T09:24:58.284Z,12.77
2023-04-13T09:26:08.461Z,12.75
2023-04-13T09:28:27.313Z,12.88
2023-04-13T09:29:29.573Z,12.75
2023-04-13T09:30:31.742Z,12.74
2023-04-13T09:31:34.006Z,12.74
2023-04-13T09:32:36.218Z,12.74
2023-04-13T09:33:50.114Z,12.73
2023-04-13T09:34:59.516Z,12.72
2023-04-13T09:36:12.976Z,12.73
2023-04-13T09:37:15.629Z,12.71
2023-04-13T09:38:17.789Z,12.70
2023-04-13T09:39:26.944Z,12.70
2023-04-13T09:40:31.038Z,12.67
2023-04-13T09:41:36.551Z,12.68
2023-04-13T09:42:40.927Z,12.66
2023-04-13T09:43:42.995Z,12.67
2023-04-13T09:44:56.641Z,12.66
2023-04-13T09:45:59.041Z,12.67
2023-04-13T09:48:23.134Z,12.80
2023-04-13T09:49:25.844Z,12.66
2023-04-13T09:50:29.580Z,12.67
2023-04-13T09:52:45.560Z,12.74
2023-04-13T09:53:48.349Z,12.62
2023-04-13T09:56:04.712Z,12.73
2023-04-13T09:57:06.893Z,12.59
2023-04-13T09:58:11.019Z,12.61
2023-04-13T09:59:14.138Z,12.61
2023-04-13T10:00:19.329Z,12.59
2023-04-13T10:01:24.380Z,12.57
2023-04-13T10:02:27.212Z,12.54
2023-04-13T10:03:32.425Z,12.53
2023-04-13T10:04:35.728Z,12.49
2023-04-13T10:05:51.104Z,12.50
2023-04-13T10:06:44.012Z,12.46
2023-04-13T10:07:47.864Z,12.43
2023-04-13T10:08:50.600Z,12.42
2023-04-13T10:09:53.714Z,12.40
2023-04-13T10:10:59.975Z,12.38
2023-04-13T10:12:04.546Z,12.38
2023-04-13T10:13:21.474Z,12.36
2023-04-13T10:15:49.127Z,12.48
2023-04-13T10:17:23.073Z,12.34
2023-04-13T10:18:56.884Z,12.35
2023-04-13T10:20:03.433Z,12.35
2023-04-13T10:21:06.308Z,12.36
2023-04-13T10:22:10.374Z,12.35
2023-04-13T10:23:13.157Z,12.31
2023-04-13T10:24:15.936Z,12.34
2023-04-13T10:25:32.276Z,12.34
2023-04-13T10:26:30.301Z,12.32
2023-04-13T10:27:32.982Z,12.31
2023-04-13T10:29:57.045Z,12.38
2023-04-13T10:30:59.750Z,12.19
2023-04-13T10:32:02.506Z,12.20
2023-04-13T10:33:08.885Z,12.18
2023-04-13T10:34:23.769Z,12.16
2023-04-13T10:35:26.333Z,12.17
2023-04-13T10:37:50.187Z,12.28
2023-04-13T10:38:52.403Z,12.12
2023-04-13T10:41:32.747Z,12.22
2023-04-13T10:44:06.444Z,12.07
2023-04-13T10:45:23.868Z,12.08
2023-04-13T10:46:26.295Z,12.09
2023-04-13T10:47:32.010Z,12.07
2023-04-13T10:48:34.662Z,12.08
2023-04-13T10:49:38.213Z,12.09
2023-04-13T10:50:40.668Z,12.09
2023-04-13T10:51:44.233Z,12.12
2023-04-13T10:53:04.193Z,12.13
2023-04-13T10:54:07.512Z,12.16
2023-04-13T10:55:10.750Z,12.16
2023-04-13T10:56:17.881Z,12.17
2023-04-13T10:57:19.976Z,12.20
2023-04-13T10:58:24.243Z,12.23
2023-04-13T10:59:57.309Z,12.25
2023-04-13T11:00:50.119Z,12.27
2023-04-13T11:01:52.327Z,12.26
2023-04-13T11:02:56.705Z,12.26
2023-04-13T11:05:20.838Z,12.35
2023-04-13T11:06:24.226Z,12.16
2023-04-13T11:07:26.447Z,12.15
2023-04-13T11:08:28.815Z,12.18
2023-04-13T11:09:30.955Z,12.20
2023-04-13T11:10:33.242Z,12.22
2023-04-13T11:11:36.622Z,12.23
2023-04-13T11:12:38.751Z,12.24
2023-04-13T11:13:45.568Z,12.23
2023-04-13T11:14:49.266Z,12.24
2023-04-13T11:15:54.585Z,12.21
2023-04-13T11:16:58.748Z,12.22
2023-04-13T11:18:01.296Z,12.23
2023-04-13T11:19:04.937Z,12.24
2023-04-13T11:20:09.052Z,12.23
2023-04-13T11:21:17.348Z,12.24
2023-04-13T11:22:22.358Z,12.26
2023-04-13T11:23:25.025Z,12.29
2023-04-13T11:24:29.526Z,12.31
2023-04-13T11:25:32.564Z,12.29
2023-04-13T11:26:38.214Z,12.32
2023-04-13T11:27:41.300Z,12.32
2023-04-13T11:28:45.782Z,12.35
2023-04-13T11:30:03.614Z,12.30
2023-04-13T11:31:05.693Z,12.34
2023-04-13T11:32:16.545Z,12.38
2023-04-13T11:33:29.448Z,12.38
2023-04-13T11:34:32.707Z,12.40
2023-04-13T11:35:38.821Z,12.36
2023-04-13T11:36:41.075Z,12.40
2023-04-13T11:37:45.993Z,12.40
2023-04-13T11:38:48.240Z,12.43
2023-04-13T11:39:50.403Z,12.42
2023-04-13T11:41:04.740Z,12.40
2023-04-13T11:42:04.801Z,12.43
2023-04-13T11:43:07.747Z,12.43
2023-04-13T11:44:13.256Z,12.44
2023-04-13T11:45:17.056Z,12.44
2023-04-13T11:46:21.631Z,12.42
2023-04-13T11:47:23.916Z,12.45
2023-04-13T11:48:26.704Z,12.51
2023-04-13T11:49:30.511Z,12.51
2023-04-13T11:50:34.143Z,12.51
2023-04-13T11:51:36.648Z,12.52
2023-04-13T11:52:40.220Z,12.54
2023-04-13T11:53:42.551Z,12.56
2023-04-13T11:54:44.912Z,12.58
2023-04-13T11:55:53.428Z,12.57
2023-04-13T11:56:52.321Z,12.55
2023-04-13T11:57:54.843Z,12.57
2023-04-13T11:58:57.029Z,12.58
2023-04-13T11:59:59.579Z,12.57
2023-04-13T12:01:13.922Z,12.55
2023-04-13T12:02:20.682Z,12.54
2023-04-13T12:04:21.107Z,12.49
2023-04-13T12:05:25.901Z,12.45
2023-04-13T12:06:30.957Z,12.42
2023-04-13T12:07:33.628Z,12.44
2023-04-13T12:08:37.570Z,12.41
2023-04-13T12:11:30.319Z,12.52
2023-04-13T12:12:34.223Z,12.36
2023-04-13T12:13:20.331Z,12.38
2023-04-13T12:14:47.694Z,12.39
2023-04-13T12:15:43.214Z,12.43
2023-04-13T12:17:01.748Z,12.43
2023-04-13T12:17:40.948Z,12.46
2023-04-13T12:19:57.561Z,12.57
2023-04-13T12:21:01.273Z,12.46
2023-04-13T12:22:04.009Z,12.50
2023-04-13T12:24:37.852Z,12.67
2023-04-13T12:25:42.010Z,12.55
2023-04-13T12:27:50.730Z,12.58
2023-04-13T12:30:05.893Z,12.68
2023-04-13T12:31:10.155Z,12.53
2023-04-13T12:32:15.522Z,12.56
2023-04-13T12:33:17.916Z,12.56
2023-04-13T12:34:20.054Z,12.54
2023-04-13T12:35:22.437Z,12.53
2023-04-13T12:36:24.681Z,12.50
2023-04-13T12:37:26.787Z,12.49
2023-04-13T12:38:28.984Z,12.48
2023-04-13T12:39:31.845Z,12.47
2023-04-13T12:40:33.998Z,12.44
2023-04-13T12:41:36.623Z,12.44
2023-04-13T12:42:38.953Z,12.44
2023-04-13T12:43:41.629Z,12.42
2023-04-13T12:44:44.099Z,12.42
2023-04-13T12:45:46.710Z,12.39
2023-04-13T12:46:49.652Z,12.37
2023-04-13T12:47:51.853Z,12.37
2023-04-13T12:48:54.675Z,12.35
2023-04-13T12:49:57.665Z,12.35
2023-04-13T12:51:00.192Z,12.34
2023-04-13T12:52:03.014Z,12.34
2023-04-13T12:53:05.657Z,12.32
2023-04-13T12:54:07.867Z,12.31
2023-04-13T12:55:10.323Z,12.30
2023-04-13T12:56:12.399Z,12.30
2023-04-13T12:57:15.270Z,12.31
2023-04-13T12:58:17.351Z,12.31
2023-04-13T12:59:20.247Z,12.31
2023-04-13T13:00:23.203Z,12.34
2023-04-13T13:01:25.429Z,12.35
2023-04-13T13:02:29.053Z,12.37
2023-04-13T13:03:31.265Z,12.38
2023-04-13T13:04:33.370Z,12.41
2023-04-13T13:05:36.017Z,12.43
2023-04-13T13:06:38.420Z,12.47
2023-04-13T13:07:41.006Z,12.46
2023-04-13T13:08:43.578Z,12.47
2023-04-13T13:09:46.612Z,12.48
2023-04-13T13:10:48.922Z,12.48
2023-04-13T13:11:51.616Z,12.49
2023-04-13T13:12:53.786Z,12.50
2023-04-13T13:13:55.904Z,12.50
2023-04-13T13:14:58.778Z,12.50
2023-04-13T13:16:00.992Z,12.49
2023-04-13T13:17:03.594Z,12.50
2023-04-13T13:18:05.801Z,12.49
2023-04-13T13:19:08.040Z,12.51
2023-04-13T13:20:12.793Z,12.51
2023-04-13T13:21:15.408Z,12.50
2023-04-13T13:22:18.103Z,12.49
2023-04-13T13:23:20.373Z,12.51
2023-04-13T13:24:22.428Z,12.52
2023-04-13T13:25:24.836Z,12.51
2023-04-13T13:26:30.620Z,12.51
2023-04-13T13:28:05.593Z,12.53
2023-04-13T13:28:36.160Z,12.57
2023-04-13T13:29:38.858Z,12.55
2023-04-13T13:30:41.644Z,12.57
2023-04-13T13:31:43.839Z,12.57
2023-04-13T13:32:46.117Z,12.58
2023-04-13T13:33:48.798Z,12.56
2023-04-13T13:34:51.357Z,12.57
2023-04-13T13:35:53.554Z,12.56
2023-04-13T13:36:56.485Z,12.56
2023-04-13T13:38:00.440Z,12.54
2023-04-13T13:39:02.990Z,12.53
2023-04-13T13:40:07.162Z,12.54
2023-04-13T13:41:09.444Z,12.54
2023-04-13T13:42:11.473Z,12.54
2023-04-13T13:43:13.577Z,12.54
2023-04-13T13:44:16.185Z,12.55
2023-04-13T13:45:18.656Z,12.53
2023-04-13T13:46:21.206Z,12.53
2023-04-13T13:47:23.931Z,12.53
2023-04-13T13:48:26.895Z,12.51
2023-04-13T13:49:33.448Z,12.51
2023-04-13T13:50:43.800Z,12.50
2023-04-13T13:51:47.442Z,12.50
2023-04-13T13:53:02.263Z,12.50
2023-04-13T13:53:54.941Z,12.50
2023-04-13T13:54:57.309Z,12.46
2023-04-13T13:55:59.924Z,12.42
2023-04-13T13:57:02.031Z,12.44
2023-04-13T13:58:04.548Z,12.42
2023-04-13T13:59:06.583Z,12.42
2023-04-13T14:00:09.715Z,12.44
2023-04-13T14:01:13.599Z,12.45
2023-04-13T14:02:15.799Z,12.46
2023-04-13T14:03:19.214Z,12.47
2023-04-13T14:04:21.593Z,12.48
2023-04-13T14:05:23.771Z,12.49
2023-04-13T14:06:25.920Z,12.51
2023-04-13T14:07:27.835Z,12.52
2023-04-13T14:08:29.859Z,12.54
2023-04-13T14:09:31.826Z,12.55
2023-04-13T14:10:34.995Z,12.56
2023-04-13T14:11:38.206Z,12.58
2023-04-13T14:12:44.234Z,12.62
2023-04-13T14:13:46.295Z,12.64
2023-04-13T14:14:48.512Z,12.64
2023-04-13T14:15:50.713Z,12.66
2023-04-13T14:16:52.985Z,12.67
2023-04-13T14:18:09.240Z,12.67
2023-04-13T14:18:59.235Z,12.69
2023-04-13T14:20:02.171Z,12.70
2023-04-13T14:21:04.771Z,12.70
2023-04-13T14:22:07.895Z,12.71
2023-04-13T14:23:11.052Z,12.71
2023-04-13T14:24:13.272Z,12.72
2023-04-13T14:25:15.401Z,12.71